createdAt,value
2023-05-17T00:01:14.513Z,100132.61
2023-05-17T00:04:18.624Z,100132.23
2023-05-17T00:07:22.750Z,100128.15
2023-05-17T00:10:26.864Z,100126.52
2023-05-17T00:13:31.221Z,100123.80
2023-05-17T00:16:35.208Z,100126.22
2023-05-17T00:19:39.260Z,100130.23
2023-05-17T00:22:45.752Z,100137.44
2023-05-17T00:25:49.770Z,100133.48
2023-05-17T00:28:53.792Z,100130.41
2023-05-17T00:31:57.829Z,100123.15
2023-05-17T00:35:01.921Z,100119.08
2023-05-17T00:38:06.032Z,100123.77
2023-05-17T00:41:10.535Z,100118.41
2023-05-17T00:44:14.573Z,100114.59
2023-05-17T00:47:19.844Z,100119.86
2023-05-17T00:50:23.928Z,100122.05
2023-05-17T00:53:29.676Z,100125.16
2023-05-17T00:56:33.802Z,100128.96
2023-05-17T00:59:39.617Z,100122.10
2023-05-17T01:02:44.861Z,100129.20
2023-05-17T01:05:50.831Z,100130.59
2023-05-17T01:08:55.169Z,100124.00
2023-05-17T01:12:26.812Z,100124.69
2023-05-17T01:15:34.923Z,100128.05
2023-05-17T01:18:49.028Z,100133.27
2023-05-17T01:22:15.984Z,100126.80
2023-05-17T01:25:21.302Z,100111.36
2023-05-17T01:28:27.676Z,100113.19
2023-05-17T01:31:32.594Z,100112.14
2023-05-17T01:34:36.793Z,100111.59
2023-05-17T01:37:41.203Z,100113.80
2023-05-17T01:41:07.349Z,100111.98
2023-05-17T01:44:36.692Z,100108.14
2023-05-17T01:47:50.617Z,100107.71
2023-05-17T01:50:58.528Z,100117.77
2023-05-17T01:54:11.509Z,100123.27
2023-05-17T01:57:16.877Z,100123.66
2023-05-17T02:00:24.809Z,100120.73
2023-05-17T02:03:29.573Z,100117.33
2023-05-17T02:06:33.691Z,100120.11
2023-05-17T02:09:37.783Z,100123.73
2023-05-17T02:12:42.564Z,100126.89
2023-05-17T02:15:46.662Z,100126.17
2023-05-17T02:18:51.037Z,100123.29
2023-05-17T02:21:55.523Z,100121.81
2023-05-17T02:24:59.596Z,100122.51
2023-05-17T02:28:03.708Z,100133.19
2023-05-17T02:31:09.529Z,100145.30
2023-05-17T02:34:13.695Z,100148.31
2023-05-17T02:37:17.743Z,100137.82
2023-05-17T02:40:21.830Z,100131.83
2023-05-17T02:43:25.851Z,100126.25
2023-05-17T02:46:29.842Z,100132.15
2023-05-17T02:49:33.966Z,100135.06
2023-05-17T02:52:38.042Z,100143.59
2023-05-17T02:55:43.057Z,100150.52
2023-05-17T02:58:47.224Z,100160.48
2023-05-17T03:01:51.422Z,100165.92
2023-05-17T03:04:55.714Z,100163.65
2023-05-17T03:08:00.060Z,100162.35
2023-05-17T03:11:04.281Z,100156.04
2023-05-17T03:14:08.300Z,100145.07
2023-05-17T03:17:12.299Z,100141.27
2023-05-17T03:20:17.543Z,100135.95
2023-05-17T03:23:22.786Z,100138.48
2023-05-17T03:26:35.487Z,100134.95
2023-05-17T03:29:39.864Z,100141.13
2023-05-17T03:32:44.066Z,100141.52
2023-05-17T03:35:48.449Z,100148.48
2023-05-17T03:38:52.529Z,100156.88
2023-05-17T03:41:56.859Z,100152.52
2023-05-17T03:45:01.575Z,100148.63
2023-05-17T03:48:06.003Z,100149.65
2023-05-17T03:51:10.219Z,100148.77
2023-05-17T03:54:14.355Z,100149.15
2023-05-17T03:57:19.792Z,100150.86
2023-05-17T04:00:24.692Z,100151.01
2023-05-17T04:03:30.828Z,100158.80
2023-05-17T04:06:35.995Z,100166.03
2023-05-17T04:09:40.869Z,100174.13
2023-05-17T04:12:44.960Z,100180.09
2023-05-17T04:15:49.051Z,100182.23
2023-05-17T04:18:53.831Z,100178.02
2023-05-17T04:21:58.094Z,100179.64
2023-05-17T04:25:02.885Z,100176.33
2023-05-17T04:28:07.185Z,100177.20
2023-05-17T04:31:13.966Z,100181.85
2023-05-17T04:34:18.202Z,100183.63
2023-05-17T04:37:22.749Z,100183.79
2023-05-17T04:40:27.633Z,100179.45
2023-05-17T04:43:33.802Z,100186.19
2023-05-17T04:46:38.016Z,100194.13
2023-05-17T04:49:43.398Z,100194.68
2023-05-17T04:52:47.913Z,100192.83
2023-05-17T04:55:52.870Z,100195.54
2023-05-17T04:58:57.480Z,100190.23
2023-05-17T05:02:01.531Z,100189.26
2023-05-17T05:05:07.144Z,100193.02
2023-05-17T05:08:12.388Z,100195.59
2023-05-17T05:11:16.761Z,100198.85
2023-05-17T05:14:21.100Z,100199.26
2023-05-17T05:17:25.947Z,100195.81
2023-05-17T05:20:31.975Z,100198.64
2023-05-17T05:23:36.493Z,100203.67
2023-05-17T05:26:41.048Z,100201.27
2023-05-17T05:29:46.235Z,100196.79
2023-05-17T05:32:51.517Z,100187.58
2023-05-17T05:35:55.725Z,100173.95
2023-05-17T05:39:00.056Z,100153.99
2023-05-17T05:42:06.597Z,100147.33
2023-05-17T05:45:11.216Z,100140.18
2023-05-17T05:48:17.139Z,100144.20
2023-05-17T05:51:22.730Z,100157.77
2023-05-17T05:54:28.158Z,100171.20
2023-05-17T05:57:32.318Z,100184.44
2023-05-17T06:00:37.362Z,100199.64
2023-05-17T06:03:41.567Z,100211.52
2023-05-17T06:06:46.436Z,100216.96
2023-05-17T06:09:50.755Z,100219.36
2023-05-17T06:12:54.831Z,100212.70
2023-05-17T06:15:59.747Z,100210.27
2023-05-17T06:19:04.492Z,100207.11
2023-05-17T06:22:08.711Z,100207.87
2023-05-17T06:25:13.030Z,100206.28
2023-05-17T06:28:17.673Z,100212.96
2023-05-17T06:31:21.820Z,100218.87
2023-05-17T06:34:26.625Z,100224.10
2023-05-17T06:37:30.829Z,100226.44
2023-05-17T06:40:35.159Z,100229.54
2023-05-17T06:43:39.381Z,100236.29
2023-05-17T06:46:43.590Z,100245.20
2023-05-17T06:49:48.562Z,100252.28
2023-05-17T06:52:52.619Z,100259.22
2023-05-17T06:55:56.816Z,100260.92
2023-05-17T06:59:00.984Z,100259.61
2023-05-17T07:02:05.429Z,100262.73
2023-05-17T07:05:09.725Z,100266.91
2023-05-17T07:08:15.372Z,100264.02
2023-05-17T07:11:19.440Z,100265.71
2023-05-17T07:14:23.550Z,100266.65
2023-05-17T07:17:27.651Z,100265.38
2023-05-17T07:20:31.844Z,100261.64
2023-05-17T07:23:35.854Z,100257.60
2023-05-17T07:26:40.222Z,100262.06
2023-05-17T07:29:44.731Z,100266.96
2023-05-17T07:32:48.947Z,100266.52
2023-05-17T07:35:53.131Z,100254.85
2023-05-17T07:39:00.315Z,100256.67
2023-05-17T07:42:05.649Z,100262.90
2023-05-17T07:45:10.382Z,100266.10
2023-05-17T07:48:14.469Z,100267.71
2023-05-17T07:51:18.714Z,100267.56
2023-05-17T07:54:29.687Z,100262.05
2023-05-17T07:57:33.999Z,100268.35
2023-05-17T08:00:38.804Z,100275.92
2023-05-17T08:03:48.401Z,100280.86
2023-05-17T08:06:52.745Z,100285.13
2023-05-17T08:09:56.839Z,100283.78
2023-05-17T08:13:01.150Z,100284.41
2023-05-17T08:16:13.411Z,100287.13
2023-05-17T08:19:19.457Z,100286.88
2023-05-17T08:22:24.175Z,100292.69
2023-05-17T08:25:28.502Z,100301.23
2023-05-17T08:28:33.001Z,100301.88
2023-05-17T08:31:37.086Z,100303.06
2023-05-17T08:34:41.151Z,100308.56
2023-05-17T08:37:45.221Z,100311.56
2023-05-17T08:40:56.645Z,100310.94
2023-05-17T08:44:02.421Z,100312.45
2023-05-17T08:47:11.298Z,100319.28
2023-05-17T08:50:15.426Z,100324.42
2023-05-17T08:53:20.083Z,100323.39
2023-05-17T08:56:26.150Z,100324.64
2023-05-17T08:59:33.989Z,100323.80
2023-05-17T09:02:40.095Z,100323.56
2023-05-17T09:05:45.723Z,100322.19
2023-05-17T09:08:55.056Z,100329.32
2023-05-17T09:11:59.871Z,100328.98
2023-05-17T09:15:18.043Z,100330.61
2023-05-17T09:18:31.675Z,100327.92
2023-05-17T09:21:37.198Z,100325.84
2023-05-17T09:24:42.369Z,100325.93
2023-05-17T09:27:46.487Z,100321.86
2023-05-17T09:30:50.687Z,100331.71
2023-05-17T09:33:54.779Z,100338.05
2023-05-17T09:37:00.542Z,100337.52
2023-05-17T09:40:07.014Z,100343.40
2023-05-17T09:43:12.298Z,100348.86
2023-05-17T09:46:17.034Z,100345.94
2023-05-17T09:49:21.066Z,100351.46
2023-05-17T09:52:25.478Z,100354.05
2023-05-17T09:55:30.989Z,100351.52
2023-05-17T09:58:37.790Z,100354.95
2023-05-17T10:01:45.741Z,100357.80
2023-05-17T10:04:52.551Z,100362.02
2023-05-17T10:07:57.826Z,100365.58
2023-05-17T10:11:11.543Z,100369.04
2023-05-17T10:14:33.922Z,100374.63
2023-05-17T10:17:44.638Z,100379.67
2023-05-17T10:20:50.332Z,100379.10
2023-05-17T10:23:55.862Z,100385.10
2023-05-17T10:27:00.530Z,100385.02
2023-05-17T10:30:05.869Z,100387.94
2023-05-17T10:33:13.426Z,100388.76
2023-05-17T10:36:18.431Z,100389.38
2023-05-17T10:39:24.172Z,100387.56
2023-05-17T10:42:28.896Z,100386.65
2023-05-17T10:45:33.941Z,100388.50
2023-05-17T10:48:39.414Z,100388.36
2023-05-17T10:51:46.196Z,100389.90
2023-05-17T10:54:50.890Z,100392.73
2023-05-17T10:58:20.026Z,100390.90
2023-05-17T11:01:52.715Z,100393.15
2023-05-17T11:04:58.155Z,100399.38
2023-05-17T11:08:20.633Z,100406.81
2023-05-17T11:11:25.530Z,100409.98
2023-05-17T11:14:45.852Z,100412.42
2023-05-17T11:17:57.536Z,100413.98
2023-05-17T11:21:09.387Z,100420.17
2023-05-17T11:24:22.315Z,100417.80
2023-05-17T11:27:28.972Z,100422.58
2023-05-17T11:30:33.401Z,100422.45
2023-05-17T11:33:45.810Z,100421.17
2023-05-17T11:36:53.099Z,100419.11
2023-05-17T11:40:08.530Z,100422.21
2023-05-17T11:43:19.236Z,100422.89
2023-05-17T11:46:24.817Z,100418.85
2023-05-17T11:49:36.134Z,100425.39
2023-05-17T11:52:41.964Z,100425.60
2023-05-17T11:55:48.492Z,100425.80
2023-05-17T11:58:55.747Z,100421.50
2023-05-17T12:01:59.986Z,100427.00
2023-05-17T12:05:04.316Z,100428.83
2023-05-17T12:08:08.635Z,100433.30
2023-05-17T12:11:15.712Z,100440.34
2023-05-17T12:14:20.606Z,100450.27
2023-05-17T12:17:35.849Z,100449.30
2023-05-17T12:20:53.377Z,100456.52
2023-05-17T12:23:57.570Z,100460.73
2023-05-17T12:27:01.648Z,100462.92
2023-05-17T12:30:15.647Z,100460.11
2023-05-17T12:33:20.899Z,100465.59
2023-05-17T12:36:27.445Z,100464.97
2023-05-17T12:39:32.138Z,100468.92
2023-05-17T12:42:36.727Z,100465.41
2023-05-17T12:45:44.735Z,100468.96
2023-05-17T12:48:51.474Z,100469.66
2023-05-17T12:51:56.421Z,100476.33
2023-05-17T12:55:03.496Z,100470.05
2023-05-17T12:58:07.548Z,100469.32
2023-05-17T13:01:14.482Z,100464.16
2023-05-17T13:04:21.024Z,100461.91
2023-05-17T13:07:25.744Z,100460.69
2023-05-17T13:10:30.436Z,100462.77
2023-05-17T13:13:35.389Z,100463.08
2023-05-17T13:16:40.435Z,100462.94
2023-05-17T13:19:44.725Z,100466.73
2023-05-17T13:22:50.285Z,100471.58
2023-05-17T13:25:54.651Z,100477.05
2023-05-17T13:28:58.695Z,100480.64
2023-05-17T13:32:03.751Z,100480.70
2023-05-17T13:35:08.785Z,100482.70
2023-05-17T13:38:12.853Z,100487.71
2023-05-17T13:41:17.007Z,100493.42
2023-05-17T13:44:21.355Z,100498.88
2023-05-17T13:47:25.856Z,100502.83
2023-05-17T13:50:30.473Z,100505.08
2023-05-17T13:53:34.865Z,100504.30
2023-05-17T13:56:39.039Z,100501.43
2023-05-17T13:59:45.734Z,100503.13
2023-05-17T14:02:50.179Z,100501.63
2023-05-17T14:05:54.703Z,100506.74
2023-05-17T14:09:00.918Z,100509.06
2023-05-17T14:12:05.578Z,100512.09
2023-05-17T14:15:10.859Z,100511.05
2023-05-17T14:18:14.990Z,100514.67
2023-05-17T14:21:19.096Z,100519.11
2023-05-17T14:24:23.173Z,100525.12
2023-05-17T14:27:27.365Z,100525.14
2023-05-17T14:30:32.249Z,100532.34
2023-05-17T14:33:37.069Z,100538.00
2023-05-17T14:36:41.211Z,100544.84
2023-05-17T14:39:58.503Z,100548.11
2023-05-17T14:43:09.215Z,100549.79
2023-05-17T14:46:14.748Z,100548.16
2023-05-17T14:49:18.940Z,100550.90
2023-05-17T14:52:23.807Z,100557.29
2023-05-17T14:55:28.029Z,100560.20
2023-05-17T14:58:32.181Z,100567.69
2023-05-17T15:01:36.974Z,100572.63
2023-05-17T15:04:41.566Z,100572.69
2023-05-17T15:07:47.717Z,100576.22
2023-05-17T15:10:52.003Z,100578.35
2023-05-17T15:13:56.948Z,100579.89
2023-05-17T15:17:02.740Z,100584.17
2023-05-17T15:20:08.536Z,100583.05
2023-05-17T15:23:12.585Z,100589.02
2023-05-17T15:26:16.977Z,100597.12
2023-05-17T15:29:21.055Z,100595.31
2023-05-17T15:32:25.092Z,100597.59
2023-05-17T15:35:29.547Z,100601.86
2023-05-17T15:38:34.030Z,100605.86
2023-05-17T15:41:38.965Z,100608.38
2023-05-17T15:44:42.980Z,100614.20
2023-05-17T15:47:47.427Z,100611.70
2023-05-17T15:50:51.785Z,100614.83
2023-05-17T15:53:56.439Z,100616.59
2023-05-17T15:57:00.881Z,100624.96
2023-05-17T16:00:05.855Z,100631.23
2023-05-17T16:03:09.916Z,100625.92
2023-05-17T16:06:16.804Z,100628.61
2023-05-17T16:09:20.856Z,100633.82
2023-05-17T16:12:24.888Z,100637.46
2023-05-17T16:15:29.188Z,100631.91
2023-05-17T16:18:33.657Z,100635.52
2023-05-17T16:21:37.761Z,100634.06
2023-05-17T16:24:42.086Z,100635.11
2023-05-17T16:27:47.613Z,100640.71
2023-05-17T16:30:52.521Z,100644.09
2023-05-17T16:33:56.611Z,100646.15
2023-05-17T16:37:00.680Z,100644.34
2023-05-17T16:40:05.824Z,100643.05
2023-05-17T16:43:11.260Z,100645.73
2023-05-17T16:46:15.432Z,100650.92
2023-05-17T16:49:19.659Z,100656.65
2023-05-17T16:52:23.746Z,100649.27
2023-05-17T16:55:27.787Z,100649.14
2023-05-17T16:58:31.975Z,100654.45
2023-05-17T17:01:36.578Z,100659.20
2023-05-17T17:04:40.731Z,100658.59
2023-05-17T17:08:01.048Z,100666.17
2023-05-17T17:11:18.957Z,100670.05
2023-05-17T17:14:24.378Z,100675.18
2023-05-17T17:17:29.737Z,100683.05
2023-05-17T17:20:33.846Z,100679.06
2023-05-17T17:23:39.945Z,100684.29
2023-05-17T17:26:45.106Z,100682.38
2023-05-17T17:29:49.110Z,100678.02
2023-05-17T17:32:53.322Z,100684.46
2023-05-17T17:35:57.668Z,100692.09
2023-05-17T17:39:01.755Z,100700.02
2023-05-17T17:42:06.334Z,100704.80
2023-05-17T17:45:10.666Z,100710.64
2023-05-17T17:48:14.777Z,100715.67
2023-05-17T17:51:18.851Z,100714.71
2023-05-17T17:54:22.878Z,100716.14
2023-05-17T17:57:26.909Z,100718.89
2023-05-17T18:00:31.160Z,100723.61
2023-05-17T18:03:35.736Z,100725.42
2023-05-17T18:06:41.833Z,100732.80
2023-05-17T18:09:46.045Z,100735.52
2023-05-17T18:12:51.687Z,100742.58
2023-05-17T18:15:56.085Z,100748.25
2023-05-17T18:19:00.914Z,100752.35
2023-05-17T18:22:05.548Z,100755.24
2023-05-17T18:25:09.777Z,100756.35
2023-05-17T18:28:13.753Z,100760.36
2023-05-17T18:31:18.909Z,100765.18
2023-05-17T18:34:25.428Z,100770.05
2023-05-17T18:37:29.524Z,100781.31
2023-05-17T18:40:33.731Z,100787.05
2023-05-17T18:43:37.759Z,100794.62
2023-05-17T18:46:41.776Z,100798.02
2023-05-17T18:49:47.161Z,100796.63
2023-05-17T18:52:51.376Z,100803.05
2023-05-17T18:55:56.055Z,100805.04
2023-05-17T18:59:00.195Z,100808.63
2023-05-17T19:02:05.270Z,100818.02
2023-05-17T19:05:09.308Z,100818.52
2023-05-17T19:08:13.586Z,100820.52
2023-05-17T19:11:18.294Z,100824.45
2023-05-17T19:14:22.329Z,100821.02
2023-05-17T19:17:26.437Z,100821.08
2023-05-17T19:20:31.149Z,100814.23
2023-05-17T19:23:36.260Z,100817.50
2023-05-17T19:26:40.750Z,100813.10
2023-05-17T19:29:45.071Z,100813.05
2023-05-17T19:32:49.586Z,100809.94
2023-05-17T19:35:53.802Z,100817.27
2023-05-17T19:38:57.855Z,100822.67
2023-05-17T19:42:02.864Z,100824.90
2023-05-17T19:45:11.269Z,100826.33
2023-05-17T19:48:15.248Z,100822.52
2023-05-17T19:51:19.445Z,100819.29
2023-05-17T19:54:23.522Z,100823.40
2023-05-17T19:57:28.442Z,100824.25
2023-05-17T20:00:33.007Z,100822.64
2023-05-17T20:03:37.158Z,100825.77
2023-05-17T20:06:41.494Z,100826.05
2023-05-17T20:09:45.685Z,100822.77
2023-05-17T20:12:49.803Z,100824.71
2023-05-17T20:15:54.013Z,100827.77
2023-05-17T20:18:58.696Z,100837.17
2023-05-17T20:22:02.914Z,100835.19
2023-05-17T20:25:07.289Z,100833.69
2023-05-17T20:28:11.299Z,100839.95
2023-05-17T20:31:15.427Z,100836.69
2023-05-17T20:34:19.500Z,100841.26
2023-05-17T20:37:23.608Z,100844.58
2023-05-17T20:40:28.097Z,100842.20
2023-05-17T20:43:34.553Z,100847.20
2023-05-17T20:46:38.724Z,100854.48
2023-05-17T20:49:42.818Z,100856.95
2023-05-17T20:52:47.321Z,100856.92
2023-05-17T20:55:51.462Z,100862.74
2023-05-17T20:58:55.660Z,100873.13
2023-05-17T21:01:59.797Z,100880.23
2023-05-17T21:05:04.985Z,100882.54
2023-05-17T21:08:09.030Z,100885.73
2023-05-17T21:11:18.969Z,100890.13
2023-05-17T21:14:23.093Z,100891.73
2023-05-17T21:17:27.274Z,100897.70
2023-05-17T21:20:31.385Z,100894.34
2023-05-17T21:23:35.417Z,100903.94
2023-05-17T21:26:41.116Z,100908.98
2023-05-17T21:29:45.654Z,100912.29
2023-05-17T21:32:49.711Z,100910.23
2023-05-17T21:35:53.936Z,100910.17
2023-05-17T21:38:58.053Z,100914.88
2023-05-17T21:42:02.100Z,100917.27
2023-05-17T21:45:07.212Z,100925.56
2023-05-17T21:48:11.302Z,100925.10
2023-05-17T21:51:15.472Z,100928.38
2023-05-17T21:54:20.124Z,100928.24
2023-05-17T21:57:24.093Z,100930.95
2023-05-17T22:00:28.934Z,100930.69
2023-05-17T22:03:33.267Z,100931.80
2023-05-17T22:06:37.473Z,100934.57
2023-05-17T22:09:41.533Z,100941.13
2023-05-17T22:12:46.699Z,100938.73
2023-05-17T22:15:50.931Z,100940.83
2023-05-17T22:18:55.072Z,100942.72
2023-05-17T22:21:59.239Z,100943.17
2023-05-17T22:25:03.639Z,100945.99
2023-05-17T22:28:07.683Z,100952.41
2023-05-17T22:31:14.722Z,100950.96
2023-05-17T22:34:18.997Z,100956.52
2023-05-17T22:37:23.730Z,100959.63
2023-05-17T22:40:27.787Z,100962.95
2023-05-17T22:43:31.837Z,100965.15
2023-05-17T22:46:36.042Z,100965.51
2023-05-17T22:49:40.823Z,100967.69
2023-05-17T22:52:46.546Z,100971.17
2023-05-17T22:55:51.220Z,100978.39
2023-05-17T22:58:55.258Z,100981.25
2023-05-17T23:01:59.421Z,100985.63
2023-05-17T23:05:04.258Z,100995.80
2023-05-17T23:08:09.990Z,100994.06
2023-05-17T23:11:14.663Z,101001.60
2023-05-17T23:14:21.794Z,101005.25
2023-05-17T23:17:32.279Z,101009.40
2023-05-17T23:20:36.346Z,101014.13
2023-05-17T23:23:40.682Z,101019.61
2023-05-17T23:26:44.744Z,101023.07
2023-05-17T23:29:48.748Z,101026.00
2023-05-17T23:32:52.946Z,101029.70
2023-05-17T23:35:58.936Z,101029.59
2023-05-17T23:39:03.070Z,101037.02
2023-05-17T23:42:10.308Z,101041.31
2023-05-17T23:45:14.437Z,101048.40
2023-05-17T23:48:21.316Z,101050.08
2023-05-17T23:51:25.592Z,101052.10
2023-05-17T23:54:29.925Z,101057.58
2023-05-17T23:57:35.347Z,101064.21
